Time;durP1;ratioP1;P1;durP2;ratioP2;P2;SDS_P1;SDS_P2;PMS_P1;PMS_P2;Temp;Humidity;BMP_temperature;BMP_pressure;BME280_temperature;BME280_humidity;BME280_pressure;Samples;Min_cycle;Max_cycle;Signal;HPM_P1;HPM_P2
2023/04/29 00:00:41;;;;;;;8.00;4.27;;;;;;;6.53;51.76;100605.38;125466;1086;104346;-78
2023/04/29 00:03:18;;;;;;;11.40;4.93;;;;;;;6.50;50.96;100602.61;125463;1086;104353;-79
2023/04/29 00:05:47;;;;;;;13.13;4.93;;;;;;;6.47;51.27;100600.75;125230;1086;104264;-79
2023/04/29 00:08:15;;;;;;;13.53;4.40;;;;;;;6.47;51.61;100601.64;125296;1086;104231;-79
2023/04/29 00:10:44;;;;;;;11.23;4.97;;;;;;;6.45;51.49;100592.85;125429;1086;104408;-79
2023/04/29 00:13:13;;;;;;;12.47;4.90;;;;;;;6.44;51.43;100600.59;125297;1086;104367;-78
2023/04/29 00:15:41;;;;;;;11.03;4.60;;;;;;;6.43;51.63;100594.45;125501;1086;104354;-80
2023/04/29 00:18:10;;;;;;;11.30;4.87;;;;;;;6.41;51.51;100603.91;125208;1086;104284;-77
2023/04/29 00:20:39;;;;;;;9.93;4.67;;;;;;;6.43;51.48;100597.06;124986;1086;104289;-77
2023/04/29 00:23:07;;;;;;;12.90;4.60;;;;;;;6.43;51.69;100599.67;124966;1086;104219;-76
2023/04/29 00:25:37;;;;;;;11.70;4.95;;;;;;;6.42;51.46;100599.58;124977;1086;104172;-77
2023/04/29 00:28:06;;;;;;;13.00;5.03;;;;;;;6.36;51.76;100596.64;125016;1086;104357;-78
2023/04/29 00:30:35;;;;;;;10.53;4.60;;;;;;;6.32;51.34;100600.80;124996;1086;104270;-77
2023/04/29 00:33:04;;;;;;;12.87;5.27;;;;;;;6.31;51.75;100601.64;125021;1086;104344;-77
2023/04/29 00:35:33;;;;;;;12.77;4.80;;;;;;;6.26;51.65;100601.39;124936;1086;104234;-77
2023/04/29 00:38:02;;;;;;;16.77;4.80;;;;;;;6.23;51.77;100606.44;125076;1086;104376;-77
2023/04/29 00:40:30;;;;;;;11.23;4.60;;;;;;;6.19;52.04;100609.67;124873;1086;104369;-77
2023/04/29 00:42:59;;;;;;;11.80;4.87;;;;;;;6.16;51.86;100611.22;125143;1085;104235;-77
2023/04/29 00:45:28;;;;;;;12.20;4.80;;;;;;;6.14;52.05;100615.43;125028;1086;104389;-77
2023/04/29 00:48:01;;;;;;;11.47;5.10;;;;;;;6.11;51.93;100611.86;125020;1086;104215;-77
2023/04/29 00:50:31;;;;;;;9.70;4.50;;;;;;;6.12;52.13;100615.34;124948;1086;104319;-77
2023/04/29 00:53:02;;;;;;;13.27;4.53;;;;;;;6.08;52.13;100616.89;124908;1086;104344;-77
2023/04/29 00:55:35;;;;;;;12.40;4.90;;;;;;;6.04;52.10;100614.03;125182;1086;104306;-78
2023/04/29 00:58:05;;;;;;;10.93;4.80;;;;;;;6.01;52.50;100608.65;125022;1086;104299;-77
2023/04/29 01:00:34;;;;;;;13.67;4.90;;;;;;;5.97;52.50;100611.88;125126;1086;104304;-77
2023/04/29 01:03:05;;;;;;;13.13;4.97;;;;;;;5.92;52.66;100616.80;124989;1086;104514;-77
2023/04/29 01:05:35;;;;;;;10.87;5.00;;;;;;;5.91;52.82;100613.31;125155;1086;104340;-79
2023/04/29 01:08:23;;;;;;;10.77;4.60;;;;;;;5.91;52.90;100609.82;125264;1086;104232;-78
2023/04/29 01:11:01;;;;;;;11.77;4.70;;;;;;;5.93;52.38;100613.39;125168;1086;104235;-78
2023/04/29 01:13:37;;;;;;;11.30;4.60;;;;;;;5.89;53.02;100614.02;125287;1086;104212;-78
2023/04/29 01:16:26;;;;;;;10.67;4.57;;;;;;;5.79;53.20;100601.31;125253;1087;104311;-78
2023/04/29 01:19:01;;;;;;;10.80;4.70;;;;;;;5.86;52.50;100619.98;125143;1086;104354;-78
2023/04/29 01:21:48;;;;;;;10.85;4.75;;;;;;;5.85;52.95;100620.78;125257;1086;104318;-79
2023/04/29 01:24:18;;;;;;;13.37;5.30;;;;;;;5.82;52.67;100620.60;125303;1086;104296;-78
2023/04/29 01:26:56;;;;;;;13.13;4.80;;;;;;;5.80;53.64;100616.11;125216;1086;104374;-78
2023/04/29 01:30:08;;;;;;;12.50;5.25;;;;;;;5.79;53.11;100614.33;125327;1086;118885;-79
2023/04/29 01:32:56;;;;;;;11.90;4.67;;;;;;;5.75;53.51;100611.55;125276;1086;104343;-79
2023/04/29 01:35:41;;;;;;;12.60;4.90;;;;;;;5.69;54.16;100615.53;125290;1086;104678;-79
2023/04/29 01:38:23;;;;;;;10.63;4.67;;;;;;;5.64;53.94;100623.08;125519;1086;104350;-78
2023/04/29 01:41:03;;;;;;;13.17;4.60;;;;;;;5.62;54.40;100613.37;125322;1085;104260;-78
2023/04/29 01:43:36;;;;;;;12.90;4.80;;;;;;;5.59;54.84;100624.49;125369;1086;104354;-78
2023/04/29 01:46:17;;;;;;;12.73;4.93;;;;;;;5.54;54.99;100612.92;125197;1086;104615;-78
2023/04/29 01:48:47;;;;;;;11.83;5.20;;;;;;;5.50;54.69;100617.07;125145;1086;104331;-78
2023/04/29 01:51:17;;;;;;;13.57;5.50;;;;;;;5.49;55.43;100619.58;125303;1086;104184;-79
2023/04/29 01:53:46;;;;;;;14.53;5.53;;;;;;;5.46;54.72;100617.69;125492;1086;104212;-79
2023/04/29 01:56:16;;;;;;;11.30;4.90;;;;;;;5.43;55.68;100627.03;125286;1086;104310;-78
2023/04/29 01:58:59;;;;;;;;;;;;;;;5.39;54.96;100616.45;125463;1086;104222;-78
2023/04/29 02:01:38;;;;;;;12.97;5.60;;;;;;;5.40;55.18;100612.12;125293;1086;104220;-79
2023/04/29 02:04:07;;;;;;;16.60;5.70;;;;;;;5.39;55.88;100619.05;125208;1086;104318;-79
2023/04/29 02:06:38;;;;;;;13.53;5.27;;;;;;;5.34;55.50;100617.86;125265;1086;104292;-77
2023/04/29 02:09:08;;;;;;;14.73;5.30;;;;;;;5.33;54.73;100622.97;125034;1085;104245;-78
2023/04/29 02:11:38;;;;;;;15.07;5.83;;;;;;;5.34;55.25;100620.46;125180;1085;104351;-78
2023/04/29 02:14:08;;;;;;;13.63;5.20;;;;;;;5.35;55.74;100624.87;125264;1086;104242;-77
2023/04/29 02:16:37;;;;;;;13.20;4.80;;;;;;;5.33;56.52;100625.58;125078;1086;104273;-78
2023/04/29 02:19:06;;;;;;;13.40;5.50;;;;;;;5.29;56.16;100626.22;125166;1086;104350;-79
2023/04/29 02:21:34;;;;;;;14.67;5.33;;;;;;;5.26;56.42;100626.05;125235;1086;104251;-79
2023/04/29 02:24:03;;;;;;;11.53;5.10;;;;;;;5.24;56.37;100630.27;125187;1086;104471;-78
2023/04/29 02:26:32;;;;;;;13.13;5.10;;;;;;;5.25;55.61;100634.64;125364;1086;104289;-78
2023/04/29 02:29:02;;;;;;;12.90;5.17;;;;;;;5.23;56.19;100629.35;125237;1086;104346;-78
2023/04/29 02:31:31;;;;;;;11.93;5.30;;;;;;;5.21;56.53;100630.97;125299;1086;104244;-79
2023/04/29 02:33:59;;;;;;;12.87;4.90;;;;;;;5.19;56.58;100636.09;125268;1086;104366;-79
2023/04/29 02:36:28;;;;;;;11.73;5.37;;;;;;;5.19;56.56;100633.48;125448;1086;104264;-79
2023/04/29 02:38:57;;;;;;;12.23;5.10;;;;;;;5.19;56.37;100635.20;125409;1086;104292;-78
2023/04/29 02:41:26;;;;;;;10.27;4.80;;;;;;;5.17;56.87;100629.91;125656;1086;104235;-79
2023/04/29 02:43:54;;;;;;;13.63;5.53;;;;;;;5.14;56.53;100640.13;125447;1086;104299;-79
2023/04/29 02:46:23;;;;;;;10.35;4.95;;;;;;;5.12;57.69;100651.23;125369;1086;104372;-79
2023/04/29 02:48:51;;;;;;;11.83;5.10;;;;;;;5.09;57.04;100645.84;125444;1086;104347;-79
2023/04/29 02:51:20;;;;;;;14.90;5.43;;;;;;;5.06;57.05;100646.55;125267;1086;104376;-79
2023/04/29 02:53:49;;;;;;;12.60;5.10;;;;;;;5.04;57.37;100648.17;125441;1086;104380;-79
2023/04/29 02:56:17;;;;;;;13.90;5.03;;;;;;;5.04;57.01;100648.17;125342;1086;104241;-79
2023/04/29 02:58:46;;;;;;;10.13;5.00;;;;;;;5.07;57.43;100647.47;125398;1086;104421;-78
2023/04/29 03:01:15;;;;;;;15.10;5.60;;;;;;;5.08;57.06;100659.65;125299;1086;104299;-78
2023/04/29 03:03:43;;;;;;;14.67;5.30;;;;;;;5.07;58.01;100650.96;125450;1086;104226;-79
2023/04/29 03:06:12;;;;;;;12.00;5.13;;;;;;;5.05;56.99;100652.58;125197;1086;104350;-78
2023/04/29 03:08:40;;;;;;;10.53;5.00;;;;;;;5.06;57.49;100656.06;125441;1085;104239;-78
2023/04/29 03:11:09;;;;;;;11.53;5.13;;;;;;;5.05;57.28;100652.58;125284;1086;104616;-78
2023/04/29 03:13:38;;;;;;;12.47;4.87;;;;;;;5.07;57.87;100660.48;125227;1086;104431;-78
2023/04/29 03:16:08;;;;;;;13.05;5.40;;;;;;;5.05;57.95;100662.98;125195;1086;104238;-78
2023/04/29 03:18:37;;;;;;;12.27;5.63;;;;;;;5.03;57.99;100657.69;125298;1086;104350;-78
2023/04/29 03:21:06;;;;;;;13.80;5.10;;;;;;;5.04;58.00;100669.87;125154;1086;105782;-78
2023/04/29 03:23:35;;;;;;;11.73;5.47;;;;;;;5.04;58.65;100667.27;125180;1086;104370;-79
2023/04/29 03:26:04;;;;;;;11.97;4.80;;;;;;;5.05;58.14;100670.79;125256;1086;104312;-79
2023/04/29 03:28:32;;;;;;;11.03;4.73;;;;;;;5.07;57.92;100668.28;125210;1086;104260;-78
2023/04/29 03:31:01;;;;;;;11.85;5.20;;;;;;;5.08;58.36;100673.58;125234;1086;104235;-79
2023/04/29 03:33:30;;;;;;;11.33;4.87;;;;;;;5.07;58.15;100673.48;125189;1086;104356;-79
2023/04/29 03:35:58;;;;;;;12.50;5.30;;;;;;;5.05;58.83;100681.19;125435;1086;104265;-79
2023/04/29 03:38:35;;;;;;;13.80;5.17;;;;;;;5.04;58.56;100676.78;125279;1086;104902;-79
2023/04/29 03:41:06;;;;;;;12.20;4.70;;;;;;;5.05;58.96;100683.80;125065;1086;104445;-78
2023/04/29 03:43:34;;;;;;;14.13;5.00;;;;;;;5.07;58.19;100678.69;125101;1086;104293;-79
2023/04/29 03:46:03;;;;;;;13.43;4.93;;;;;;;5.10;58.33;100682.36;125218;1086;104494;-78
2023/04/29 03:48:32;;;;;;;13.53;5.17;;;;;;;5.12;58.39;100682.45;125138;1086;104359;-78
2023/04/29 03:51:00;;;;;;;10.83;4.80;;;;;;;5.15;58.57;100685.23;125162;1086;104379;-79
2023/04/29 03:53:29;;;;;;;16.80;4.65;;;;;;;5.19;58.44;100682.91;125149;1086;104245;-79
2023/04/29 03:55:58;;;;;;;14.13;5.63;;;;;;;5.23;58.39;100678.78;125206;1086;104375;-78
2023/04/29 03:58:27;;;;;;;12.30;4.53;;;;;;;5.28;58.33;100692.95;125394;1086;104231;-79
2023/04/29 04:00:56;;;;;;;14.63;5.17;;;;;;;5.30;58.36;100688.77;125356;1086;104319;-78
2023/04/29 04:03:27;;;;;;;11.10;4.70;;;;;;;5.33;58.98;100694.15;125238;1086;104359;-79
2023/04/29 04:05:56;;;;;;;12.55;5.00;;;;;;;5.36;58.12;100676.12;125416;1086;104374;-78
2023/04/29 04:08:25;;;;;;;14.20;4.67;;;;;;;5.39;58.74;100680.58;125345;1086;104215;-78
2023/04/29 04:11:01;;;;;;;11.87;5.00;;;;;;;5.46;58.80;100684.47;125546;1086;104228;-77
2023/04/29 04:13:53;;;;;;;12.03;5.20;;;;;;;5.53;58.86;100681.41;125461;1086;104347;-78
2023/04/29 04:16:21;;;;;;;11.47;5.03;;;;;;;5.60;58.70;100682.69;125411;1086;104382;-78
2023/04/29 04:18:50;;;;;;;15.13;5.10;;;;;;;5.66;58.83;100683.05;125338;1086;104376;-77
2023/04/29 04:21:19;;;;;;;14.00;5.07;;;;;;;5.71;59.03;100679.88;125232;1086;104245;-78
2023/04/29 04:23:53;;;;;;;11.23;4.70;;;;;;;5.78;58.99;100682.84;125242;1085;104340;-79
2023/04/29 04:26:23;;;;;;;13.05;5.30;;;;;;;5.83;58.67;100676.17;125319;1086;104666;-78
2023/04/29 04:28:54;;;;;;;12.67;4.87;;;;;;;5.87;58.87;100680.77;125181;1086;104306;-78
2023/04/29 04:32:02;;;;;;;13.10;5.10;;;;;;;5.94;58.31;100673.39;125203;1089;104504;-78
2023/04/29 04:34:31;;;;;;;11.67;4.57;;;;;;;6.04;58.23;100673.95;125006;1089;104548;-77
2023/04/29 04:37:01;;;;;;;13.07;4.90;;;;;;;6.13;58.00;100677.08;124956;1086;104277;-78
2023/04/29 04:39:30;;;;;;;11.30;4.47;;;;;;;6.20;58.14;100676.63;125232;1086;104428;-78
2023/04/29 04:41:59;;;;;;;10.97;5.37;;;;;;;6.28;57.92;100674.45;124998;1086;104411;-78
2023/04/29 04:44:29;;;;;;;11.73;4.60;;;;;;;6.37;57.70;100674.03;125123;1086;104293;-79
2023/04/29 04:47:06;;;;;;;11.20;4.30;;;;;;;6.46;57.82;100675.43;125039;1086;104351;-77
2023/04/29 04:49:45;;;;;;;13.13;4.87;;;;;;;6.58;57.53;100662.18;125098;1086;104343;-79
2023/04/29 04:52:13;;;;;;;8.40;4.10;;;;;;;6.64;57.47;100661.63;125109;1086;104324;-78
2023/04/29 04:54:46;;;;;;;9.87;4.20;;;;;;;6.70;57.20;100664.56;125062;1086;104414;-79
2023/04/29 04:57:18;;;;;;;13.68;4.97;;;;;;;6.76;56.83;100662.29;125109;1086;104354;-78
2023/04/29 04:59:47;;;;;;;8.90;4.00;;;;;;;6.85;57.23;100667.08;125167;1086;104318;-79
2023/04/29 05:02:16;;;;;;;8.73;4.37;;;;;;;6.92;57.28;100663.08;125336;1086;104302;-80
2023/04/29 05:04:45;;;;;;;10.67;4.27;;;;;;;7.00;56.99;100662.67;125942;1086;104249;-81
2023/04/29 05:07:14;;;;;;;10.97;4.23;;;;;;;7.10;56.45;100668.38;125404;1086;104344;-79
2023/04/29 05:09:57;;;;;;;;;;;;;;;7.17;56.45;100674.00;125415;1086;104334;-78
2023/04/29 05:12:29;;;;;;;9.03;4.27;;;;;;;7.26;56.36;100668.38;125541;1086;104321;-78
2023/04/29 05:14:58;;;;;;;9.67;3.90;;;;;;;7.35;56.38;100670.55;125607;1086;104387;-79
2023/04/29 05:17:27;;;;;;;10.70;4.20;;;;;;;7.48;56.25;100672.05;125316;1086;104273;-78
2023/04/29 05:19:57;;;;;;;11.10;4.60;;;;;;;7.61;56.24;100671.87;125270;1086;104842;-79
2023/04/29 05:22:26;;;;;;;10.60;4.40;;;;;;;7.79;54.49;100678.83;125399;1086;104295;-81
2023/04/29 05:25:01;;;;;;;9.75;3.50;;;;;;;7.94;53.93;100676.09;125486;1086;104231;-82
2023/04/29 05:27:30;;;;;;;9.13;3.97;;;;;;;8.10;53.21;100673.38;125444;1086;104277;-80
2023/04/29 05:29:58;;;;;;;12.57;4.10;;;;;;;8.24;54.18;100669.73;125298;1086;104456;-80
2023/04/29 05:32:27;;;;;;;9.63;3.87;;;;;;;8.36;52.35;100672.02;125274;1086;104200;-80
2023/04/29 05:34:56;;;;;;;9.07;3.40;;;;;;;8.45;49.88;100680.33;125266;1086;104209;-79
2023/04/29 05:37:29;;;;;;;9.57;3.50;;;;;;;8.59;51.06;100672.25;125374;1085;104286;-79
2023/04/29 05:40:09;;;;;;;9.17;3.53;;;;;;;8.68;52.78;100670.06;125414;1086;104370;-80
2023/04/29 05:42:39;;;;;;;11.50;3.47;;;;;;;8.76;51.47;100667.80;125463;1086;104359;-80
2023/04/29 05:45:11;;;;;;;8.45;3.80;;;;;;;8.87;50.53;100669.17;125251;1086;104306;-81
2023/04/29 05:47:39;;;;;;;8.73;3.60;;;;;;;8.97;50.24;100667.84;125541;1085;104252;-80
2023/04/29 05:50:10;;;;;;;10.07;3.30;;;;;;;9.06;49.08;100659.52;125328;1086;104270;-81
2023/04/29 05:52:39;;;;;;;10.93;3.90;;;;;;;9.16;50.76;100659.08;125400;1086;104350;-79
2023/04/29 05:55:08;;;;;;;6.90;3.30;;;;;;;9.21;47.58;100660.20;125283;1085;104306;-80
2023/04/29 05:57:37;;;;;;;8.17;3.40;;;;;;;9.34;50.40;100661.63;125415;1086;104420;-81
2023/04/29 06:00:08;;;;;;;10.70;3.70;;;;;;;9.48;50.06;100663.09;125435;1086;104373;-79
2023/04/29 06:02:42;;;;;;;8.93;3.57;;;;;;;9.63;49.17;100657.63;125416;1086;104290;-80
2023/04/29 06:05:14;;;;;;;9.33;3.60;;;;;;;9.75;48.15;100661.58;125472;1086;104228;-81
2023/04/29 06:08:09;;;;;;;10.27;3.40;;;;;;;9.87;48.54;100657.73;125531;1086;104640;-80
2023/04/29 06:10:52;;;;;;;7.37;3.33;;;;;;;9.93;47.09;100661.45;125276;1086;104376;-78
2023/04/29 06:13:21;;;;;;;7.00;3.43;;;;;;;10.00;47.27;100660.86;125488;1086;104213;-77
2023/04/29 06:15:50;;;;;;;6.63;2.83;;;;;;;10.07;47.95;100652.41;125408;1086;111023;-78
2023/04/29 06:18:19;;;;;;;6.67;3.07;;;;;;;10.16;47.80;100654.49;125353;1086;104350;-76
2023/04/29 06:20:48;;;;;;;6.70;2.90;;;;;;;10.26;45.77;100654.03;125308;1086;104348;-79
2023/04/29 06:23:16;;;;;;;6.83;3.20;;;;;;;10.40;46.96;100651.98;125379;1086;104357;-79
2023/04/29 06:25:45;;;;;;;7.63;3.10;;;;;;;10.52;45.57;100651.58;125322;1086;104238;-81
2023/04/29 06:28:14;;;;;;;5.17;2.90;;;;;;;10.60;43.52;100647.51;125413;1086;104325;-79
2023/04/29 06:30:44;;;;;;;6.30;2.97;;;;;;;10.68;43.77;100635.56;125502;1086;104767;-81
2023/04/29 06:33:15;;;;;;;9.20;2.80;;;;;;;10.76;45.58;100639.35;125435;1086;104257;-79
2023/04/29 06:35:44;;;;;;;7.60;3.10;;;;;;;10.83;45.33;100631.70;125404;1086;104669;-79
2023/04/29 06:38:31;;;;;;;8.63;3.13;;;;;;;10.89;46.23;100632.84;125111;1086;104295;-79
2023/04/29 06:41:18;;;;;;;10.67;3.07;;;;;;;11.05;46.27;100630.78;125356;1086;104235;-80
2023/04/29 06:43:52;;;;;;;11.20;3.00;;;;;;;11.17;45.99;100627.67;125632;1086;104225;-80
2023/04/29 06:46:38;;;;;;;8.70;2.90;;;;;;;11.32;44.25;100623.84;125276;1086;117716;-81
2023/04/29 06:49:11;;;;;;;9.45;3.10;;;;;;;11.44;42.95;100614.62;125412;1086;104363;-80
2023/04/29 06:51:41;;;;;;;8.30;2.97;;;;;;;11.54;43.00;100618.44;125447;1086;104357;-78
2023/04/29 06:54:10;;;;;;;5.10;2.73;;;;;;;11.69;42.65;100619.84;125457;1086;104373;-81
2023/04/29 06:56:38;;;;;;;9.63;2.80;;;;;;;11.87;43.10;100621.27;125525;1086;104249;-79
2023/04/29 06:59:07;;;;;;;4.80;2.57;;;;;;;12.01;41.40;100612.14;125330;1086;104355;-78
2023/04/29 07:01:37;;;;;;;6.93;3.00;;;;;;;12.13;42.62;100618.62;125357;1086;104497;-79
2023/04/29 07:04:06;;;;;;;6.33;2.90;;;;;;;12.23;39.70;100618.05;125286;1086;104318;-77
2023/04/29 07:06:35;;;;;;;5.63;2.23;;;;;;;12.39;38.18;100622.95;125388;1086;104293;-76
2023/04/29 07:09:04;;;;;;;6.10;2.63;;;;;;;12.50;40.02;100615.38;125293;1086;104316;-77
2023/04/29 07:11:35;;;;;;;6.43;2.37;;;;;;;12.58;40.03;100611.22;125204;1086;104290;-75
2023/04/29 07:14:04;;;;;;;4.47;2.50;;;;;;;12.70;38.85;100600.16;124955;1086;104385;-76
2023/04/29 07:16:32;;;;;;;6.60;2.77;;;;;;;12.82;39.27;100598.72;125161;1085;104375;-79
2023/04/29 07:19:01;;;;;;;6.37;2.90;;;;;;;12.99;39.17;100601.82;125253;1086;104325;-77
2023/04/29 07:21:30;;;;;;;3.53;2.13;;;;;;;13.06;36.04;100598.52;125144;1085;104238;-75
2023/04/29 07:24:01;;;;;;;10.75;2.90;;;;;;;13.23;36.58;100601.58;124940;1086;104369;-75
2023/04/29 07:26:30;;;;;;;5.40;2.47;;;;;;;13.25;37.47;100579.69;125075;1086;104363;-79
2023/04/29 07:28:59;;;;;;;11.57;2.97;;;;;;;13.24;34.39;100598.09;125352;1086;104366;-78
2023/04/29 07:31:28;;;;;;;7.60;2.30;;;;;;;13.21;37.42;100574.30;125211;1086;104341;-79
2023/04/29 07:33:57;;;;;;;11.00;3.20;;;;;;;13.41;35.65;100596.81;125398;1086;104260;-79
2023/04/29 07:36:27;;;;;;;7.67;2.93;;;;;;;13.57;35.58;100606.03;125346;1086;104283;-77
2023/04/29 07:38:56;;;;;;;5.60;2.70;;;;;;;13.47;33.95;100601.37;124944;1085;104480;-79
2023/04/29 07:41:27;;;;;;;4.90;2.07;;;;;;;13.53;33.08;100605.91;125250;1086;104318;-79
2023/04/29 07:43:56;;;;;;;5.97;2.50;;;;;;;13.61;35.42;100606.99;125160;1086;104318;-79
2023/04/29 07:46:24;;;;;;;8.37;2.50;;;;;;;13.64;34.26;100599.16;124962;1086;104372;-79
2023/04/29 07:48:53;;;;;;;2.83;2.10;;;;;;;13.61;33.09;100605.23;125200;1086;104370;-79
2023/04/29 07:51:22;;;;;;;5.07;2.47;;;;;;;13.50;35.02;100605.84;125252;1086;104232;-80
2023/04/29 07:53:51;;;;;;;11.50;3.20;;;;;;;13.41;32.88;100598.58;125342;1086;104631;-79
2023/04/29 07:56:20;;;;;;;5.00;2.10;;;;;;;13.50;33.31;100611.99;125430;1086;104290;-78
2023/04/29 07:58:49;;;;;;;4.20;2.10;;;;;;;13.62;32.78;100606.15;125462;1086;104268;-77
2023/04/29 08:01:17;;;;;;;4.20;2.10;;;;;;;13.79;33.19;100593.34;125247;1086;104437;-78
2023/04/29 08:03:46;;;;;;;4.13;2.20;;;;;;;13.94;33.56;100592.83;125214;1086;104439;-80
2023/04/29 08:06:19;;;;;;;6.10;2.20;;;;;;;13.96;33.93;100583.20;125321;1086;104210;-79
2023/04/29 08:08:48;;;;;;;3.73;1.90;;;;;;;14.06;30.94;100586.97;125212;1086;104337;-77
2023/04/29 08:11:21;;;;;;;3.60;1.90;;;;;;;14.21;32.13;100587.31;125218;1086;104161;-78
2023/04/29 08:13:49;;;;;;;7.35;2.10;;;;;;;14.17;32.21;100590.73;125289;1086;104396;-78
2023/04/29 08:16:18;;;;;;;7.10;2.20;;;;;;;14.14;32.70;100588.02;125367;1086;104327;-78
2023/04/29 08:18:47;;;;;;;5.10;2.40;;;;;;;14.12;32.94;100587.98;125372;1086;104200;-79
2023/04/29 08:21:16;;;;;;;12.67;2.50;;;;;;;14.07;33.56;100587.00;125208;1086;104452;-80
2023/04/29 08:23:44;;;;;;;5.10;2.37;;;;;;;14.10;32.35;100581.80;125460;1086;104289;-79
2023/04/29 08:26:13;;;;;;;3.03;2.20;;;;;;;14.09;32.75;100581.76;125075;1086;104331;-78
2023/04/29 08:28:41;;;;;;;9.00;2.25;;;;;;;14.05;32.36;100569.34;125511;1086;107038;-79
2023/04/29 08:31:17;;;;;;;5.20;2.03;;;;;;;14.02;31.08;100575.42;125284;1086;104341;-77
2023/04/29 08:33:45;;;;;;;8.33;2.40;;;;;;;13.96;31.12;100564.73;125568;1086;104283;-77
2023/04/29 08:36:14;;;;;;;5.17;2.17;;;;;;;13.91;31.85;100561.11;125632;1086;104235;-78
2023/04/29 08:38:43;;;;;;;3.70;2.30;;;;;;;13.86;32.54;100557.48;125899;1086;118178;-80
2023/04/29 08:41:14;;;;;;;5.23;2.60;;;;;;;13.92;32.62;100544.44;125779;1085;104389;-78
2023/04/29 08:43:42;;;;;;;8.13;2.03;;;;;;;13.99;31.55;100556.89;125195;1086;104245;-76
2023/04/29 08:46:12;;;;;;;4.90;2.33;;;;;;;14.02;31.63;100571.06;125259;1085;104360;-77
2023/04/29 08:48:41;;;;;;;4.37;2.40;;;;;;;13.94;31.70;100559.42;125520;1086;105670;-76
2023/04/29 08:51:12;;;;;;;5.90;2.37;;;;;;;13.88;31.54;100556.64;125382;1086;104232;-77
2023/04/29 08:53:40;;;;;;;4.27;2.57;;;;;;;13.91;32.10;100550.55;125262;1085;104377;-77
2023/04/29 08:56:15;;;;;;;7.13;2.57;;;;;;;13.95;32.00;100548.02;125417;1086;104321;-77
2023/04/29 08:58:45;;;;;;;4.00;2.30;;;;;;;13.99;31.61;100564.80;125122;1086;104366;-77
2023/04/29 09:01:14;;;;;;;4.23;2.40;;;;;;;13.96;32.21;100533.98;125239;1086;104232;-80
2023/04/29 09:03:51;;;;;;;5.23;2.43;;;;;;;14.06;32.44;100523.64;125143;1086;104308;-80
2023/04/29 09:06:20;;;;;;;5.87;2.57;;;;;;;14.10;31.60;100542.22;125191;1086;104372;-79
2023/04/29 09:08:49;;;;;;;10.27;2.30;;;;;;;14.06;31.80;100547.39;125291;1086;104361;-78
2023/04/29 09:11:19;;;;;;;5.00;2.30;;;;;;;13.88;30.30;100532.02;125167;1086;104347;-76
2023/04/29 09:13:47;;;;;;;23.00;3.50;;;;;;;13.94;31.04;100525.13;125507;1086;104305;-77
2023/04/29 09:16:16;;;;;;;6.93;2.47;;;;;;;13.97;31.69;100514.64;125313;1086;104280;-78
2023/04/29 09:18:46;;;;;;;5.40;2.10;;;;;;;14.07;31.34;100514.84;125138;1086;104264;-76
2023/04/29 09:21:17;;;;;;;4.60;1.80;;;;;;;14.12;31.92;100514.10;125224;1086;104366;-78
2023/04/29 09:23:46;;;;;;;5.53;2.30;;;;;;;14.18;30.21;100502.80;125367;1086;104315;-77
2023/04/29 09:26:16;;;;;;;6.53;2.20;;;;;;;14.17;31.23;100503.64;125159;1086;104289;-81
2023/04/29 09:28:46;;;;;;;3.80;2.13;;;;;;;14.25;32.17;100496.77;125426;1086;104327;-77
2023/04/29 09:31:15;;;;;;;5.27;1.90;;;;;;;14.29;31.28;100495.98;125325;1086;104402;-78
2023/04/29 09:33:54;;;;;;;6.17;2.10;;;;;;;14.24;29.32;100497.61;125318;1085;104339;-77
2023/04/29 09:36:37;;;;;;;3.27;2.20;;;;;;;14.24;30.82;100494.98;125301;1086;104297;-77
2023/04/29 09:39:10;;;;;;;3.07;2.20;;;;;;;14.29;30.41;100489.80;125699;1086;104721;-78
2023/04/29 09:41:58;;;;;;;2.60;1.83;;;;;;;14.34;31.17;100488.16;125511;1086;104264;-79
2023/04/29 09:44:28;;;;;;;8.07;2.33;;;;;;;14.35;31.65;100469.72;125331;1086;104242;-79
2023/04/29 09:46:58;;;;;;;5.57;2.17;;;;;;;14.25;31.17;100483.57;125317;1086;104290;-77
2023/04/29 09:49:29;;;;;;;4.77;2.07;;;;;;;14.27;29.41;100475.69;125235;1086;104359;-77
2023/04/29 09:51:59;;;;;;;3.33;2.00;;;;;;;14.32;29.66;100479.30;125484;1086;104218;-79
2023/04/29 09:54:30;;;;;;;5.60;2.37;;;;;;;14.33;30.89;100475.81;125415;1086;104290;-78
2023/04/29 09:57:01;;;;;;;7.33;2.47;;;;;;;14.34;30.69;100477.60;125283;1086;104328;-78
2023/04/29 09:59:34;;;;;;;4.95;2.00;;;;;;;14.41;30.61;100476.84;125402;1086;104238;-77
2023/04/29 10:02:14;;;;;;;5.47;2.10;;;;;;;14.43;30.87;100463.67;125625;1086;104242;-80
2023/04/29 10:04:45;;;;;;;7.27;2.30;;;;;;;14.50;30.96;100449.74;125777;1085;104216;-81
2023/04/29 10:07:16;;;;;;;8.97;2.10;;;;;;;14.47;29.25;100479.61;125456;1086;104351;-81
2023/04/29 10:09:45;;;;;;;4.97;2.20;;;;;;;14.43;30.59;100456.66;125700;1085;104305;-79
2023/04/29 10:12:21;;;;;;;4.40;2.10;;;;;;;14.52;30.21;100462.12;125551;1086;104239;-81
2023/04/29 10:15:02;;;;;;;2.90;1.83;;;;;;;14.58;28.42;100466.61;125471;1086;104647;-80
2023/04/29 10:17:43;;;;;;;6.03;2.07;;;;;;;14.60;29.72;100464.00;125700;1086;104226;-80
2023/04/29 10:20:15;;;;;;;7.87;2.50;;;;;;;14.64;30.58;100461.48;125248;1086;104318;-83
2023/04/29 10:22:47;;;;;;;3.63;1.93;;;;;;;14.66;29.83;100454.50;125435;1086;104382;-80
2023/04/29 10:25:17;;;;;;;5.30;2.43;;;;;;;14.73;29.95;100459.00;125538;1085;104363;-81
2023/04/29 10:27:47;;;;;;;5.60;2.17;;;;;;;14.67;29.96;100453.61;125490;1085;104337;-82
2023/04/29 10:30:17;;;;;;;4.27;2.23;;;;;;;14.78;29.69;100442.36;125579;1086;105706;-81
2023/04/29 10:32:47;;;;;;;5.17;2.47;;;;;;;14.87;30.34;100446.05;125505;1086;104225;-81
2023/04/29 10:35:18;;;;;;;4.07;2.40;;;;;;;14.86;30.08;100440.73;125214;1086;104362;-80
2023/04/29 10:37:48;;;;;;;3.60;2.20;;;;;;;14.89;29.13;100461.92;125465;1086;104296;-80
2023/04/29 10:40:22;;;;;;;8.03;2.27;;;;;;;14.96;30.88;100444.41;125391;1086;104207;-82
2023/04/29 10:42:52;;;;;;;4.78;2.20;;;;;;;15.00;29.54;100441.84;125900;1086;104363;-79
2023/04/29 10:45:22;;;;;;;4.07;1.70;;;;;;;14.99;29.67;100447.11;125576;1086;104314;-83
2023/04/29 10:48:12;;;;;;;5.37;2.47;;;;;;;15.01;29.58;100448.05;125536;1086;104679;-78
2023/04/29 10:51:01;;;;;;;3.93;2.13;;;;;;;14.99;30.89;100431.25;125819;1085;104245;-80
2023/04/29 10:53:30;;;;;;;7.17;2.17;;;;;;;15.02;31.00;100426.94;125588;1086;104241;-81
2023/04/29 10:56:10;;;;;;;6.20;2.30;;;;;;;15.03;31.50;100423.41;125759;1086;104231;-80
2023/04/29 10:58:43;;;;;;;5.70;2.30;;;;;;;15.07;29.96;100430.53;126453;1086;104232;-79
2023/04/29 11:01:13;;;;;;;4.05;1.95;;;;;;;15.10;29.54;100433.22;125376;1086;104337;-81
2023/04/29 11:03:53;;;;;;;6.53;2.13;;;;;;;15.13;29.55;100432.39;125476;1086;104228;-80
2023/04/29 11:06:25;;;;;;;5.23;2.00;;;;;;;15.17;30.86;100409.53;125395;1086;104207;-81
2023/04/29 11:09:09;;;;;;;3.33;1.97;;;;;;;15.20;30.56;100407.81;125494;1086;104284;-80
2023/04/29 11:11:42;;;;;;;4.75;1.92;;;;;;;15.25;29.96;100431.67;125328;1086;104376;-76
2023/04/29 11:14:12;;;;;;;6.33;2.10;;;;;;;15.34;30.43;100420.37;125228;1086;104241;-77
2023/04/29 11:16:48;;;;;;;5.00;1.93;;;;;;;15.32;30.85;100408.86;125385;1086;104234;-79
2023/04/29 11:19:17;;;;;;;4.70;2.10;;;;;;;15.32;29.96;100396.55;125291;1086;104257;-75
2023/04/29 11:21:46;;;;;;;9.77;2.23;;;;;;;15.38;29.67;100398.38;125311;1086;104245;-78
2023/04/29 11:24:16;;;;;;;9.23;2.10;;;;;;;15.37;30.05;100394.85;125203;1086;104369;-77
2023/04/29 11:26:45;;;;;;;11.63;2.30;;;;;;;15.43;29.90;100389.66;125217;1086;104388;-77
2023/04/29 11:29:14;;;;;;;6.37;2.33;;;;;;;15.52;29.11;100385.35;125420;1086;104373;-77